createdAt,value
2019-02-20T00:00:46.383Z,-14.50
2019-02-20T00:03:19.218Z,-14.60
2019-02-20T00:05:51.901Z,-14.60
2019-02-20T00:08:24.401Z,-14.60
2019-02-20T00:10:57.246Z,-14.80
2019-02-20T00:13:30.074Z,-14.90
2019-02-20T00:16:02.583Z,-15.10
2019-02-20T00:18:36.091Z,-15.30
2019-02-20T00:21:08.820Z,-15.30
2019-02-20T00:23:41.830Z,-15.40
2019-02-20T00:26:14.903Z,-15.40
2019-02-20T00:28:47.992Z,-15.30
2019-02-20T00:31:20.518Z,-15.40
2019-02-20T00:33:53.487Z,-15.50
2019-02-20T00:36:26.290Z,-15.60
2019-02-20T00:38:58.859Z,-15.80
2019-02-20T00:41:31.555Z,-15.80
2019-02-20T00:44:37.383Z,-15.70
2019-02-20T00:47:34.106Z,-15.70
2019-02-20T00:50:06.800Z,-15.80
2019-02-20T00:52:49.802Z,-15.80
2019-02-20T00:55:21.414Z,-15.80
2019-02-20T00:57:55.897Z,-15.50
2019-02-20T01:00:29.064Z,-15.50
2019-02-20T01:03:02.058Z,-15.60
2019-02-20T01:05:34.648Z,-15.80
2019-02-20T01:08:07.868Z,-15.90
2019-02-20T01:10:41.109Z,-15.90
2019-02-20T01:13:14.189Z,-15.80
2019-02-20T01:15:47.164Z,-15.80
2019-02-20T01:18:19.858Z,-15.80
2019-02-20T01:20:52.944Z,-15.70
2019-02-20T01:23:25.639Z,-15.80
2019-02-20T01:25:58.058Z,-15.90
2019-02-20T01:28:32.833Z,-16.00
2019-02-20T01:31:05.607Z,-16.00
2019-02-20T01:33:39.362Z,-16.20
2019-02-20T01:36:12.191Z,-16.20
2019-02-20T01:38:44.774Z,-16.20
2019-02-20T01:41:18.135Z,-16.20
2019-02-20T01:43:51.962Z,-16.20
2019-02-20T01:46:24.559Z,-16.10
2019-02-20T01:48:57.794Z,-16.10
2019-02-20T01:51:30.719Z,-16.20
2019-02-20T01:54:03.645Z,-16.30
2019-02-20T01:56:36.683Z,-16.30
2019-02-20T01:59:09.471Z,-16.30
2019-02-20T02:01:42.141Z,-16.30
2019-02-20T02:04:15.200Z,-16.30
2019-02-20T02:06:47.915Z,-16.30
2019-02-20T02:09:20.931Z,-16.30
2019-02-20T02:11:53.477Z,-16.30
2019-02-20T02:14:26.321Z,-16.40
2019-02-20T02:16:58.896Z,-16.40
2019-02-20T02:19:32.469Z,-16.50
2019-02-20T02:22:05.503Z,-16.60
2019-02-20T02:24:38.438Z,-16.50
2019-02-20T02:27:10.717Z,-16.60
2019-02-20T02:29:47.018Z,-16.70
2019-02-20T02:32:19.765Z,-16.80
2019-02-20T02:34:52.541Z,-16.80
2019-02-20T02:37:25.155Z,-16.70
2019-02-20T02:39:58.527Z,-16.50
2019-02-20T02:42:31.363Z,-16.50
2019-02-20T02:45:04.084Z,-16.60
2019-02-20T02:47:37.023Z,-16.70
2019-02-20T02:50:10.357Z,-16.70
2019-02-20T02:52:43.045Z,-16.60
2019-02-20T02:55:15.367Z,-16.60
2019-02-20T02:57:47.929Z,-16.60
2019-02-20T03:00:20.712Z,-16.70
2019-02-20T03:02:53.524Z,-16.80
2019-02-20T03:05:26.410Z,-16.90
2019-02-20T03:07:59.173Z,-16.90
2019-02-20T03:10:32.013Z,-16.80
2019-02-20T03:13:04.502Z,-16.70
2019-02-20T03:15:37.292Z,-16.60
2019-02-20T03:18:10.071Z,-16.70
2019-02-20T03:20:43.405Z,-16.70
2019-02-20T03:23:16.258Z,-16.80
2019-02-20T03:25:49.013Z,-16.90
2019-02-20T03:28:22.351Z,-17.10
2019-02-20T03:30:55.194Z,-17.20
2019-02-20T03:33:28.619Z,-17.50
2019-02-20T03:36:01.724Z,-17.70
2019-02-20T03:38:33.985Z,-17.80
2019-02-20T03:41:06.603Z,-18.00
2019-02-20T03:43:39.715Z,-17.90
2019-02-20T03:46:12.444Z,-17.90
2019-02-20T03:48:45.330Z,-17.80
2019-02-20T03:51:18.309Z,-17.70
2019-02-20T03:53:52.445Z,-17.80
2019-02-20T03:56:25.303Z,-18.00
2019-02-20T03:58:57.973Z,-18.10
2019-02-20T04:01:30.938Z,-18.00
2019-02-20T04:04:03.748Z,-18.00
2019-02-20T04:06:37.671Z,-17.70
2019-02-20T04:09:10.227Z,-17.80
2019-02-20T04:11:42.588Z,-17.80
2019-02-20T04:14:14.917Z,-17.80
2019-02-20T04:16:47.397Z,-18.10
2019-02-20T04:19:20.462Z,-18.30
2019-02-20T04:21:53.300Z,-18.40
2019-02-20T04:24:26.637Z,-18.60
2019-02-20T04:26:59.269Z,-18.70
2019-02-20T04:29:31.763Z,-18.70
2019-02-20T04:32:04.361Z,-18.70
2019-02-20T04:34:37.414Z,-18.80
2019-02-20T04:37:10.318Z,-18.90
2019-02-20T04:39:42.972Z,-19.00
2019-02-20T04:42:15.737Z,-19.20
2019-02-20T04:44:48.583Z,-19.30
2019-02-20T04:47:21.390Z,-19.50
2019-02-20T04:49:54.784Z,-19.70
2019-02-20T04:52:27.602Z,-19.70
2019-02-20T04:55:00.082Z,-19.90
2019-02-20T04:57:32.855Z,-19.90
2019-02-20T05:00:05.521Z,-19.80
2019-02-20T05:02:39.139Z,-19.70
2019-02-20T05:05:12.390Z,-19.70
2019-02-20T05:07:45.118Z,-19.70
2019-02-20T05:10:17.485Z,-19.70
2019-02-20T05:12:50.349Z,-19.70
2019-02-20T05:15:22.996Z,-19.80
2019-02-20T05:17:55.600Z,-19.70
2019-02-20T05:20:27.976Z,-19.70
2019-02-20T05:23:00.818Z,-19.80
2019-02-20T05:25:33.443Z,-19.90
2019-02-20T05:28:06.535Z,-19.90
2019-02-20T05:30:39.548Z,-20.00
2019-02-20T05:33:12.629Z,-20.10
2019-02-20T05:35:45.116Z,-20.30
2019-02-20T05:38:17.609Z,-20.20
2019-02-20T05:40:50.593Z,-20.10
2019-02-20T05:43:23.109Z,-19.70
2019-02-20T05:45:55.688Z,-19.60
2019-02-20T05:48:27.981Z,-19.40
2019-02-20T05:51:00.505Z,-19.10
2019-02-20T05:53:33.355Z,-18.70
2019-02-20T05:56:06.276Z,-18.30
2019-02-20T05:58:39.006Z,-18.10
2019-02-20T06:01:12.038Z,-18.00
2019-02-20T06:03:44.831Z,-18.00
2019-02-20T06:06:17.526Z,-18.10
2019-02-20T06:08:49.951Z,-18.30
2019-02-20T06:11:22.556Z,-18.60
2019-02-20T06:13:55.255Z,-18.70
2019-02-20T06:16:27.852Z,-18.80
2019-02-20T06:19:01.130Z,-18.80
2019-02-20T06:21:33.732Z,-18.80
2019-02-20T06:24:06.583Z,-18.60
2019-02-20T06:26:43.351Z,-18.60
2019-02-20T06:29:15.835Z,-18.60
2019-02-20T06:31:48.272Z,-18.50
2019-02-20T06:34:21.198Z,-18.50
2019-02-20T06:36:54.327Z,-18.50
2019-02-20T06:39:27.051Z,-18.60
2019-02-20T06:41:59.584Z,-18.70
2019-02-20T06:44:32.401Z,-18.90
2019-02-20T06:47:05.197Z,-19.10
2019-02-20T06:49:38.130Z,-19.30
2019-02-20T06:52:11.227Z,-19.40
2019-02-20T06:54:53.320Z,-19.50
2019-02-20T06:57:19.034Z,-19.60
2019-02-20T06:59:51.991Z,-19.70
2019-02-20T07:02:24.735Z,-19.80
2019-02-20T07:05:41.998Z,-19.90
2019-02-20T07:08:59.959Z,-20.00
2019-02-20T07:12:18.518Z,-20.20
2019-02-20T07:15:32.675Z,-20.40
2019-02-20T07:18:33.447Z,-20.20
2019-02-20T07:21:31.792Z,-20.00
2019-02-20T07:24:48.808Z,-19.90
2019-02-20T07:28:00.308Z,-19.90
2019-02-20T07:30:32.726Z,-19.90
2019-02-20T07:33:05.356Z,-20.10
2019-02-20T07:35:38.151Z,-20.30
2019-02-20T07:38:11.081Z,-20.50
2019-02-20T07:40:43.531Z,-20.60
2019-02-20T07:43:16.050Z,-20.80
2019-02-20T07:45:49.326Z,-20.90
2019-02-20T07:48:22.562Z,-21.10
2019-02-20T07:50:55.280Z,-21.10
2019-02-20T07:53:28.340Z,-21.10
2019-02-20T07:56:01.127Z,-21.10
2019-02-20T07:58:33.770Z,-21.10
2019-02-20T08:01:06.573Z,-21.20
2019-02-20T08:03:39.355Z,-21.20
2019-02-20T08:06:11.976Z,-21.20
2019-02-20T08:08:44.742Z,-21.10
2019-02-20T08:11:17.375Z,-21.10
2019-02-20T08:13:50.495Z,-21.00
2019-02-20T08:16:23.077Z,-20.80
2019-02-20T08:18:55.745Z,-20.60
2019-02-20T08:21:28.213Z,-20.50
2019-02-20T08:24:02.879Z,-20.60
2019-02-20T08:26:37.151Z,-20.70
2019-02-20T08:29:09.613Z,-20.70
2019-02-20T08:31:42.632Z,-20.90
2019-02-20T08:34:15.415Z,-20.90
2019-02-20T08:36:48.058Z,-21.10
2019-02-20T08:39:20.165Z,-21.10
2019-02-20T08:41:53.147Z,-21.20
2019-02-20T08:44:25.483Z,-21.30
2019-02-20T08:46:58.383Z,-21.40
2019-02-20T08:49:31.121Z,-21.50
2019-02-20T08:52:03.583Z,-21.60
2019-02-20T08:54:36.339Z,-21.60
2019-02-20T08:57:08.846Z,-21.70
2019-02-20T08:59:41.428Z,-21.80
2019-02-20T09:02:14.548Z,-21.80
2019-02-20T09:04:47.142Z,-21.90
2019-02-20T09:07:19.811Z,-21.90
2019-02-20T09:09:52.557Z,-21.80
2019-02-20T09:12:25.198Z,-21.70
2019-02-20T09:14:57.731Z,-21.70
2019-02-20T09:17:30.687Z,-21.60
2019-02-20T09:20:03.341Z,-21.60
2019-02-20T09:22:36.143Z,-21.60
2019-02-20T09:25:09.476Z,-21.70
2019-02-20T09:27:42.507Z,-21.70
2019-02-20T09:30:27.941Z,-21.80
2019-02-20T09:32:53.081Z,-21.80
2019-02-20T09:35:25.902Z,-21.90
2019-02-20T09:37:58.427Z,-21.90
2019-02-20T09:40:31.053Z,-21.90
2019-02-20T09:43:03.908Z,-21.90
2019-02-20T09:45:41.983Z,-22.00
2019-02-20T09:48:11.646Z,-21.90
2019-02-20T09:50:45.009Z,-22.00
2019-02-20T09:53:17.494Z,-22.00
2019-02-20T09:55:51.843Z,-22.00
2019-02-20T09:58:24.273Z,-22.00
2019-02-20T10:00:57.072Z,-22.00
2019-02-20T10:03:30.082Z,-22.00
2019-02-20T10:06:02.499Z,-22.00
2019-02-20T10:08:35.970Z,-22.00
2019-02-20T10:11:08.612Z,-22.10
2019-02-20T10:13:41.339Z,-22.10
2019-02-20T10:16:13.669Z,-22.20
2019-02-20T10:18:46.237Z,-22.20
2019-02-20T10:21:19.331Z,-22.30
2019-02-20T10:23:52.318Z,-22.40
2019-02-20T10:26:25.089Z,-22.50
2019-02-20T10:28:57.775Z,-22.60
2019-02-20T10:31:30.517Z,-22.60
2019-02-20T10:34:02.924Z,-22.60
2019-02-20T10:36:36.103Z,-22.60
2019-02-20T10:39:09.950Z,-22.60
2019-02-20T10:41:42.871Z,-22.70
2019-02-20T10:44:15.749Z,-22.80
2019-02-20T10:46:48.552Z,-22.90
2019-02-20T10:49:20.847Z,-22.90
2019-02-20T10:51:53.323Z,-22.90
2019-02-20T10:54:25.760Z,-22.90
2019-02-20T10:56:58.587Z,-22.90
2019-02-20T10:59:31.932Z,-23.00
2019-02-20T11:02:04.551Z,-23.00
2019-02-20T11:04:37.617Z,-23.10
2019-02-20T11:07:10.576Z,-23.10
2019-02-20T11:09:43.421Z,-23.20
2019-02-20T11:12:15.988Z,-23.10
2019-02-20T11:14:49.395Z,-23.20
2019-02-20T11:17:22.265Z,-23.20
2019-02-20T11:19:54.851Z,-23.20
2019-02-20T11:22:27.633Z,-23.20
2019-02-20T11:25:00.380Z,-23.30
2019-02-20T11:27:33.267Z,-23.30
2019-02-20T11:30:07.229Z,-23.40
2019-02-20T11:32:40.299Z,-23.20
2019-02-20T11:35:13.151Z,-23.30
2019-02-20T11:37:46.213Z,-23.30
2019-02-20T11:40:18.943Z,-23.40
2019-02-20T11:42:51.784Z,-23.30
2019-02-20T11:45:25.126Z,-23.20
2019-02-20T11:47:57.494Z,-23.20
2019-02-20T11:50:30.271Z,-23.20
2019-02-20T11:53:02.520Z,-23.20
2019-02-20T11:55:34.719Z,-23.20
2019-02-20T11:58:07.602Z,-23.30
2019-02-20T12:00:40.577Z,-23.30
2019-02-20T12:03:13.875Z,-23.20
2019-02-20T12:05:46.723Z,-23.20
2019-02-20T12:08:19.864Z,-23.00
2019-02-20T12:10:52.313Z,-22.80
2019-02-20T12:13:24.903Z,-22.80
2019-02-20T12:15:57.563Z,-22.90
2019-02-20T12:18:30.276Z,-22.90
2019-02-20T12:21:02.706Z,-22.90
2019-02-20T12:23:36.876Z,-23.00
2019-02-20T12:26:09.161Z,-22.90
2019-02-20T12:28:42.890Z,-22.90
2019-02-20T12:31:19.952Z,-22.70
2019-02-20T12:33:53.001Z,-22.60
2019-02-20T12:36:25.843Z,-22.40
2019-02-20T12:38:58.284Z,-22.30
2019-02-20T12:41:30.922Z,-22.00
2019-02-20T12:44:04.197Z,-21.80
2019-02-20T12:46:37.050Z,-21.50
2019-02-20T12:49:09.499Z,-21.20
2019-02-20T12:51:42.354Z,-20.90
2019-02-20T12:54:14.834Z,-20.70
2019-02-20T12:56:47.436Z,-20.50
2019-02-20T12:59:20.324Z,-20.40
2019-02-20T13:01:53.716Z,-20.20
2019-02-20T13:04:26.681Z,-20.00
2019-02-20T13:06:59.557Z,-19.70
2019-02-20T13:09:32.541Z,-19.60
2019-02-20T13:12:04.832Z,-19.30
2019-02-20T13:14:37.235Z,-19.10
2019-02-20T13:17:10.248Z,-18.80
2019-02-20T13:19:42.644Z,-18.60
2019-02-20T13:22:16.740Z,-18.40
2019-02-20T13:24:49.522Z,-18.10
2019-02-20T13:27:23.020Z,-17.90
2019-02-20T13:29:56.049Z,-17.60
2019-02-20T13:32:28.891Z,-17.50
2019-02-20T13:35:01.609Z,-17.40
2019-02-20T13:37:34.207Z,-17.20
2019-02-20T13:40:07.295Z,-17.00
2019-02-20T13:42:39.957Z,-16.70
2019-02-20T13:45:12.434Z,-16.50
2019-02-20T13:47:44.900Z,-16.30
2019-02-20T13:50:20.217Z,-16.00
2019-02-20T13:52:52.830Z,-15.70
2019-02-20T13:55:34.061Z,-15.50
2019-02-20T13:57:59.469Z,-15.10
2019-02-20T14:00:32.085Z,-14.80
2019-02-20T14:03:04.591Z,-14.50
2019-02-20T14:05:37.239Z,-14.20
2019-02-20T14:08:09.834Z,-13.90
2019-02-20T14:10:42.729Z,-13.70
2019-02-20T14:13:15.965Z,-13.40
2019-02-20T14:15:49.162Z,-13.20
2019-02-20T14:18:21.957Z,-13.10
2019-02-20T14:20:54.445Z,-12.90
2019-02-20T14:23:26.514Z,-12.50
2019-02-20T14:25:59.212Z,-12.10
2019-02-20T14:28:33.051Z,-11.80
2019-02-20T14:31:07.122Z,-11.40
2019-02-20T14:33:39.380Z,-11.10
2019-02-20T14:36:12.687Z,-11.00
2019-02-20T14:38:45.813Z,-10.90
2019-02-20T14:41:18.533Z,-10.90
2019-02-20T14:43:51.180Z,-10.80
2019-02-20T14:46:23.741Z,-10.70
2019-02-20T14:48:57.067Z,-10.50
2019-02-20T14:51:29.910Z,-10.10
2019-02-20T14:54:02.374Z,-9.70
2019-02-20T14:56:34.795Z,-9.60
2019-02-20T14:59:07.429Z,-9.20
2019-02-20T15:01:40.077Z,-9.00
2019-02-20T15:04:13.027Z,-8.70
2019-02-20T15:06:45.703Z,-8.20
2019-02-20T15:09:18.031Z,-8.00
2019-02-20T15:11:50.563Z,-7.60
2019-02-20T15:14:23.195Z,-7.50
2019-02-20T15:16:56.335Z,-7.40
2019-02-20T15:19:29.279Z,-7.40
2019-02-20T15:22:02.111Z,-7.30
2019-02-20T15:24:35.189Z,-7.20
2019-02-20T15:27:07.570Z,-7.10
2019-02-20T15:29:39.992Z,-6.90
2019-02-20T15:32:15.906Z,-6.80
2019-02-20T15:34:48.355Z,-6.60
2019-02-20T15:37:20.744Z,-6.50
2019-02-20T15:39:53.794Z,-6.50
2019-02-20T15:42:26.761Z,-6.50
2019-02-20T15:44:59.339Z,-6.10
2019-02-20T15:47:32.031Z,-6.10
2019-02-20T15:50:04.418Z,-6.20
2019-02-20T15:52:36.970Z,-6.30
2019-02-20T15:55:11.427Z,-6.30
2019-02-20T15:57:44.123Z,-6.20
2019-02-20T16:00:20.040Z,-6.00
2019-02-20T16:02:52.423Z,-6.10
2019-02-20T16:05:25.111Z,-6.00
2019-02-20T16:07:57.509Z,-6.10
2019-02-20T16:10:30.287Z,-5.80
2019-02-20T16:13:02.553Z,-5.70
2019-02-20T16:15:35.628Z,-5.60
2019-02-20T16:18:08.517Z,-5.60
2019-02-20T16:20:41.097Z,-5.40
2019-02-20T16:23:14.209Z,-5.30
2019-02-20T16:25:46.909Z,-5.20
2019-02-20T16:28:20.027Z,-5.20
2019-02-20T16:30:52.464Z,-4.80
2019-02-20T16:33:25.088Z,-4.70
2019-02-20T16:35:57.650Z,-4.70
2019-02-20T16:38:30.193Z,-4.60
2019-02-20T16:41:04.616Z,-4.10
2019-02-20T16:43:37.303Z,-3.90
2019-02-20T16:46:10.194Z,-3.70
2019-02-20T16:48:43.266Z,-3.60
2019-02-20T16:51:16.239Z,-3.60
2019-02-20T16:53:48.709Z,-3.70
2019-02-20T16:56:21.217Z,-3.70
2019-02-20T16:58:53.767Z,-3.50
2019-02-20T17:01:26.782Z,-3.20
2019-02-20T17:03:59.493Z,-3.30
2019-02-20T17:06:32.147Z,-3.10
2019-02-20T17:09:06.377Z,-3.20
2019-02-20T17:11:39.460Z,-3.10
2019-02-20T17:14:11.970Z,-3.00
2019-02-20T17:16:45.387Z,-3.00
2019-02-20T17:19:17.516Z,-3.10
2019-02-20T17:21:50.569Z,-3.10
2019-02-20T17:24:23.135Z,-3.20
2019-02-20T17:26:56.265Z,-3.40
2019-02-20T17:29:29.055Z,-3.20
2019-02-20T17:32:02.243Z,-3.20
2019-02-20T17:34:35.273Z,-3.20
2019-02-20T17:37:08.101Z,-3.50
2019-02-20T17:39:40.641Z,-3.40
2019-02-20T17:42:13.391Z,-2.90
2019-02-20T17:44:45.730Z,-4.10
2019-02-20T17:47:18.426Z,-4.10
2019-02-20T17:49:51.374Z,-4.30
2019-02-20T17:52:24.351Z,-3.20
2019-02-20T17:54:56.828Z,-2.90
2019-02-20T17:57:29.444Z,-2.30
2019-02-20T18:00:01.900Z,-1.80
2019-02-20T18:02:35.065Z,-1.40
2019-02-20T18:05:08.012Z,-1.90
2019-02-20T18:07:48.784Z,-1.90
2019-02-20T18:10:16.124Z,-2.50
2019-02-20T18:12:48.515Z,-3.50
2019-02-20T18:15:21.396Z,-3.40
2019-02-20T18:17:54.170Z,-4.50
2019-02-20T18:20:26.851Z,-5.40
2019-02-20T18:22:59.969Z,-4.60
2019-02-20T18:25:32.704Z,-4.70
2019-02-20T18:28:06.503Z,-4.50
2019-02-20T18:30:39.027Z,-4.40
2019-02-20T18:33:12.021Z,-3.40
2019-02-20T18:35:49.279Z,-2.60
2019-02-20T18:38:21.831Z,-2.30
2019-02-20T18:40:55.768Z,-3.20
2019-02-20T18:43:28.843Z,-2.30
2019-02-20T18:46:01.520Z,-2.50
2019-02-20T18:48:34.241Z,-1.90
2019-02-20T18:51:06.767Z,-1.80
2019-02-20T18:53:39.480Z,-2.60
2019-02-20T18:56:11.969Z,-3.20
2019-02-20T18:58:44.553Z,-2.90
2019-02-20T19:01:17.394Z,-3.30
2019-02-20T19:03:50.417Z,-3.50
2019-02-20T19:06:23.679Z,-3.60
2019-02-20T19:09:15.485Z,-2.80
2019-02-20T19:12:34.629Z,-2.30
2019-02-20T19:15:55.124Z,-2.60
2019-02-20T19:19:02.406Z,-3.10
2019-02-20T19:22:21.600Z,-3.00
2019-02-20T19:25:19.108Z,-3.00
2019-02-20T19:28:10.538Z,-4.20
2019-02-20T19:31:37.387Z,-3.50
2019-02-20T19:34:40.733Z,-3.10
2019-02-20T19:37:53.309Z,-2.50
2019-02-20T19:41:07.436Z,-3.30
2019-02-20T19:44:23.015Z,-4.00
2019-02-20T19:47:41.060Z,-3.90
2019-02-20T19:50:54.295Z,-5.00
2019-02-20T19:53:52.892Z,-5.50
2019-02-20T19:57:19.631Z,-6.00
2019-02-20T20:00:36.148Z,-6.20
2019-02-20T20:03:49.897Z,-5.50
2019-02-20T20:07:07.257Z,-6.00
2019-02-20T20:10:16.497Z,-6.20
2019-02-20T20:13:43.783Z,-5.70
2019-02-20T20:16:58.775Z,-5.80
2019-02-20T20:19:48.077Z,-5.90
2019-02-20T20:23:15.128Z,-6.20
2019-02-20T20:26:38.160Z,-6.10
2019-02-20T20:29:34.870Z,-6.60
2019-02-20T20:32:53.797Z,-6.60
2019-02-20T20:36:05.180Z,-6.50
2019-02-20T20:39:03.497Z,-6.50
2019-02-20T20:41:59.687Z,-6.80
2019-02-20T20:44:42.837Z,-6.80
2019-02-20T20:47:54.302Z,-6.90
2019-02-20T20:51:03.593Z,-6.50
2019-02-20T20:54:32.261Z,-6.70
2019-02-20T20:57:59.059Z,-6.70
2019-02-20T21:00:48.843Z,-7.10
2019-02-20T21:03:22.199Z,-7.50
2019-02-20T21:06:22.975Z,-7.50
2019-02-20T21:09:19.488Z,-7.40
2019-02-20T21:12:37.643Z,-7.10
2019-02-20T21:15:27.242Z,-6.90
2019-02-20T21:18:41.442Z,-6.90
2019-02-20T21:21:28.507Z,-6.80
2019-02-20T21:24:36.734Z,-6.70
2019-02-20T21:27:28.654Z,-6.70
2019-02-20T21:30:37.995Z,-6.80
2019-02-20T21:33:51.068Z,-6.90
2019-02-20T21:36:28.479Z,-6.90
2019-02-20T21:39:38.894Z,-7.00
2019-02-20T21:42:47.211Z,-7.10
2019-02-20T21:46:10.949Z,-7.20
2019-02-20T21:49:26.123Z,-7.20
2019-02-20T21:52:35.511Z,-7.30
2019-02-20T21:55:37.833Z,-7.30
2019-02-20T21:58:43.610Z,-7.30
2019-02-20T22:01:37.161Z,-7.40
2019-02-20T22:04:35.035Z,-7.40
2019-02-20T22:07:28.763Z,-7.40
2019-02-20T22:10:42.866Z,-7.50
2019-02-20T22:13:59.111Z,-7.50
2019-02-20T22:17:09.633Z,-7.50
2019-02-20T22:20:17.455Z,-7.50
2019-02-20T22:23:21.539Z,-7.60
2019-02-20T22:26:33.222Z,-7.60
2019-02-20T22:29:53.097Z,-7.60
2019-02-20T22:33:11.138Z,-7.60
2019-02-20T22:36:29.492Z,-7.70
2019-02-20T22:39:21.883Z,-7.70
2019-02-20T22:42:40.102Z,-7.80
2019-02-20T22:45:38.499Z,-7.80
2019-02-20T22:48:43.949Z,-7.80
2019-02-20T22:51:46.191Z,-7.90
2019-02-20T22:54:51.785Z,-7.90
2019-02-20T22:57:59.046Z,-7.90
2019-02-20T23:01:05.957Z,-8.00
2019-02-20T23:04:08.556Z,-8.00
2019-02-20T23:07:14.193Z,-8.00
2019-02-20T23:10:17.179Z,-8.00
2019-02-20T23:13:04.693Z,-8.00
2019-02-20T23:15:37.561Z,-8.00
2019-02-20T23:18:10.376Z,-8.00
2019-02-20T23:20:43.463Z,-8.00
2019-02-20T23:23:16.730Z,-8.00
2019-02-20T23:25:49.340Z,-7.90
2019-02-20T23:28:21.682Z,-8.00
2019-02-20T23:30:54.643Z,-8.00
2019-02-20T23:33:27.408Z,-7.90
2019-02-20T23:36:00.459Z,-8.00
2019-02-20T23:38:32.671Z,-8.00
2019-02-20T23:41:05.045Z,-7.90
2019-02-20T23:43:37.886Z,-7.90
2019-02-20T23:46:10.318Z,-7.90
2019-02-20T23:48:42.872Z,-7.90
2019-02-20T23:51:15.615Z,-7.90
2019-02-20T23:53:48.123Z,-7.90
2019-02-20T23:56:21.455Z,-8.00
2019-02-20T23:58:54.485Z,-8.00
